createdAt,value
2023-05-19T00:02:09.405Z,3.70
2023-05-19T00:05:12.944Z,4.03
2023-05-19T00:08:16.661Z,4.00
2023-05-19T00:11:18.419Z,4.22
2023-05-19T00:14:20.192Z,7.15
2023-05-19T00:17:21.910Z,5.32
2023-05-19T00:20:23.386Z,5.93
2023-05-19T00:23:24.977Z,6.82
2023-05-19T00:26:28.208Z,6.45
2023-05-19T00:29:29.798Z,5.93
2023-05-19T00:32:31.436Z,3.87
2023-05-19T00:35:33.098Z,5.03
2023-05-19T00:38:35.418Z,3.70
2023-05-19T00:41:37.080Z,12.45
2023-05-19T00:44:40.713Z,7.05
2023-05-19T00:47:42.385Z,4.87
2023-05-19T00:50:44.808Z,9.18
2023-05-19T00:53:49.331Z,4.25
2023-05-19T00:56:51.142Z,3.97
2023-05-19T00:59:52.775Z,4.57
2023-05-19T01:02:54.625Z,3.65
2023-05-19T01:05:56.422Z,3.22
2023-05-19T01:08:58.253Z,4.12
2023-05-19T01:12:02.043Z,4.30
2023-05-19T01:15:04.148Z,3.92
2023-05-19T01:18:11.251Z,5.85
2023-05-19T01:21:31.528Z,3.30
2023-05-19T01:24:45.426Z,4.55
2023-05-19T01:27:46.928Z,5.50
2023-05-19T01:30:55.603Z,3.75
2023-05-19T01:33:57.582Z,4.25
2023-05-19T01:37:00.823Z,5.68
2023-05-19T01:40:02.463Z,7.35
2023-05-19T01:43:04.073Z,7.72
2023-05-19T01:46:05.693Z,4.15
2023-05-19T01:49:07.815Z,5.43
2023-05-19T01:52:09.403Z,4.20
2023-05-19T01:55:11.157Z,5.37
2023-05-19T01:58:20.273Z,4.60
2023-05-19T02:01:27.926Z,7.30
2023-05-19T02:04:40.038Z,6.80
2023-05-19T02:07:44.391Z,6.95
2023-05-19T02:10:49.892Z,5.35
2023-05-19T02:13:54.087Z,6.95
2023-05-19T02:16:57.327Z,5.57
2023-05-19T02:19:58.879Z,5.00
2023-05-19T02:23:00.419Z,6.00
2023-05-19T02:26:02.600Z,7.40
2023-05-19T02:29:04.237Z,5.37
2023-05-19T02:32:06.129Z,11.30
2023-05-19T02:35:07.997Z,8.52
2023-05-19T02:38:09.988Z,7.65
2023-05-19T02:41:11.522Z,7.55
2023-05-19T02:44:13.137Z,7.87
2023-05-19T02:47:14.792Z,7.00
2023-05-19T02:50:16.326Z,8.27
2023-05-19T02:53:17.920Z,10.98
2023-05-19T02:56:19.506Z,7.47
2023-05-19T02:59:21.083Z,10.00
2023-05-19T03:02:22.660Z,5.35
2023-05-19T03:05:24.262Z,19.12
2023-05-19T03:08:25.907Z,5.25
2023-05-19T03:11:27.465Z,7.62
2023-05-19T03:14:29.616Z,5.90
2023-05-19T03:17:34.337Z,7.20
2023-05-19T03:20:36.061Z,7.85
2023-05-19T03:23:37.619Z,9.85
2023-05-19T03:26:39.245Z,12.05
2023-05-19T03:29:40.785Z,10.32
2023-05-19T03:32:42.492Z,23.12
2023-05-19T03:35:44.682Z,14.32
2023-05-19T03:38:46.306Z,6.90
2023-05-19T03:41:47.893Z,10.93
2023-05-19T03:44:49.606Z,15.10
2023-05-19T03:47:51.538Z,10.48
2023-05-19T03:50:53.229Z,19.45
2023-05-19T03:53:54.787Z,13.27
2023-05-19T03:56:56.507Z,10.95
2023-05-19T03:59:58.026Z,13.85
2023-05-19T04:03:00.562Z,12.18
2023-05-19T04:06:02.272Z,12.13
2023-05-19T04:09:05.247Z,9.55
2023-05-19T04:12:06.952Z,19.55
2023-05-19T04:15:11.433Z,5.95
2023-05-19T04:18:13.564Z,5.87
2023-05-19T04:21:15.122Z,9.55
2023-05-19T04:24:16.690Z,11.07
2023-05-19T04:27:18.337Z,6.45
2023-05-19T04:30:22.723Z,8.98
2023-05-19T04:33:24.782Z,4.72
2023-05-19T04:36:26.476Z,6.78
2023-05-19T04:39:28.049Z,7.35
2023-05-19T04:42:30.858Z,14.57
2023-05-19T04:45:33.263Z,5.78
2023-05-19T04:48:34.922Z,11.55
2023-05-19T04:51:36.967Z,5.10
2023-05-19T04:54:39.035Z,6.28
2023-05-19T04:57:40.617Z,5.00
2023-05-19T05:00:42.199Z,6.37
2023-05-19T05:03:44.509Z,10.25
2023-05-19T05:06:48.928Z,13.27
2023-05-19T05:09:50.575Z,6.75
2023-05-19T05:12:52.257Z,5.20
2023-05-19T05:15:54.292Z,8.50
2023-05-19T05:18:56.154Z,7.87
2023-05-19T05:21:57.969Z,7.12
2023-05-19T05:24:59.626Z,7.32
2023-05-19T05:28:05.176Z,5.47
2023-05-19T05:31:06.957Z,7.15
2023-05-19T05:34:08.625Z,4.93
2023-05-19T05:37:10.272Z,10.13
2023-05-19T05:40:12.355Z,7.32
2023-05-19T05:43:13.946Z,8.48
2023-05-19T05:46:15.569Z,6.62
2023-05-19T05:49:17.393Z,7.28
2023-05-19T05:52:21.191Z,4.20
2023-05-19T05:55:23.006Z,6.07
2023-05-19T05:58:24.586Z,7.12
2023-05-19T06:01:26.154Z,4.53
2023-05-19T06:04:27.848Z,11.27
2023-05-19T06:07:29.503Z,10.43
2023-05-19T06:10:31.285Z,8.38
2023-05-19T06:13:33.113Z,3.50
2023-05-19T06:16:34.779Z,5.22
2023-05-19T06:19:36.417Z,4.97
2023-05-19T06:22:38.014Z,5.68
2023-05-19T06:25:39.609Z,5.68
2023-05-19T06:28:42.621Z,7.18
2023-05-19T06:31:44.498Z,8.25
2023-05-19T06:34:54.080Z,7.95
2023-05-19T06:37:58.703Z,5.82
2023-05-19T06:41:00.428Z,7.22
2023-05-19T06:44:02.002Z,6.62
2023-05-19T06:47:03.687Z,5.65
2023-05-19T06:50:05.376Z,8.20
2023-05-19T06:53:06.974Z,9.05
2023-05-19T06:56:08.634Z,5.53
2023-05-19T06:59:10.409Z,5.90
2023-05-19T07:02:12.187Z,7.43
2023-05-19T07:05:13.804Z,7.97
2023-05-19T07:08:15.363Z,10.80
2023-05-19T07:11:16.988Z,3.33
2023-05-19T07:14:18.530Z,5.87
2023-05-19T07:17:20.742Z,4.18
2023-05-19T07:20:22.372Z,3.30
2023-05-19T07:23:23.939Z,2.25
2023-05-19T07:26:26.453Z,6.18
2023-05-19T07:29:28.068Z,5.95
2023-05-19T07:32:29.614Z,6.55
2023-05-19T07:35:31.187Z,7.93
2023-05-19T07:38:34.814Z,3.58
2023-05-19T07:41:36.617Z,5.05
2023-05-19T07:44:38.262Z,3.92
2023-05-19T07:47:39.837Z,3.90
2023-05-19T07:50:41.475Z,3.47
2023-05-19T07:53:43.008Z,6.25
2023-05-19T07:56:44.586Z,7.05
2023-05-19T07:59:46.127Z,4.22
2023-05-19T08:02:47.876Z,4.30
2023-05-19T08:05:49.585Z,9.90
2023-05-19T08:08:52.065Z,10.43
2023-05-19T08:11:54.217Z,5.07
2023-05-19T08:14:55.948Z,4.18
2023-05-19T08:17:57.517Z,4.97
2023-05-19T08:20:59.156Z,5.18
2023-05-19T08:24:01.869Z,3.92
2023-05-19T08:27:04.902Z,5.45
2023-05-19T08:30:07.161Z,6.72
2023-05-19T08:33:08.729Z,8.13
2023-05-19T08:36:10.587Z,7.80
2023-05-19T08:39:13.657Z,3.85
2023-05-19T08:42:15.275Z,7.57
2023-05-19T08:45:17.024Z,9.57
2023-05-19T08:48:19.319Z,5.37
2023-05-19T08:51:25.642Z,14.82
2023-05-19T08:54:30.312Z,6.97
2023-05-19T08:57:32.992Z,5.40
2023-05-19T09:00:35.011Z,3.47
2023-05-19T09:03:38.499Z,6.03
2023-05-19T09:06:42.486Z,3.28
2023-05-19T09:09:44.181Z,6.35
2023-05-19T09:12:47.674Z,6.65
2023-05-19T09:15:50.412Z,4.62
2023-05-19T09:18:58.259Z,6.40
2023-05-19T09:22:01.241Z,7.87
2023-05-19T09:25:02.810Z,4.47
2023-05-19T09:28:04.383Z,3.65
2023-05-19T09:31:06.761Z,8.75
2023-05-19T09:34:14.437Z,4.95
2023-05-19T09:37:16.083Z,3.25
2023-05-19T09:40:18.034Z,2.65
2023-05-19T09:43:19.727Z,4.15
2023-05-19T09:46:26.747Z,11.85
2023-05-19T09:49:32.962Z,4.45
2023-05-19T09:52:43.852Z,3.25
2023-05-19T09:55:45.668Z,6.45
2023-05-19T09:58:48.739Z,3.15
2023-05-19T10:01:50.567Z,4.22
2023-05-19T10:04:53.119Z,3.78
2023-05-19T10:07:55.232Z,2.67
2023-05-19T10:10:57.188Z,8.95
2023-05-19T10:13:59.042Z,4.15
2023-05-19T10:17:00.785Z,4.97
2023-05-19T10:20:02.546Z,13.68
2023-05-19T10:23:04.276Z,5.10
2023-05-19T10:26:06.910Z,2.58
2023-05-19T10:29:08.545Z,3.53
2023-05-19T10:32:24.795Z,10.70
2023-05-19T10:35:29.961Z,3.23
2023-05-19T10:38:56.838Z,4.35
2023-05-19T10:42:17.467Z,6.00
2023-05-19T10:45:21.140Z,6.93
2023-05-19T10:48:23.358Z,7.32
2023-05-19T10:51:31.981Z,5.62
2023-05-19T10:54:40.944Z,5.28
2023-05-19T10:57:53.372Z,5.25
2023-05-19T11:01:00.490Z,8.00
2023-05-19T11:04:12.318Z,7.78
2023-05-19T11:07:21.012Z,3.62
2023-05-19T11:10:23.038Z,12.30
2023-05-19T11:13:28.458Z,6.78
2023-05-19T11:16:31.787Z,10.63
2023-05-19T11:19:34.759Z,6.68
2023-05-19T11:22:37.154Z,6.32
2023-05-19T11:25:44.834Z,7.68
2023-05-19T11:28:47.631Z,4.97
2023-05-19T11:31:49.394Z,5.00
2023-05-19T11:34:51.162Z,10.43
2023-05-19T11:37:54.239Z,3.42
2023-05-19T11:40:56.457Z,5.93
2023-05-19T11:43:58.025Z,3.22
2023-05-19T11:47:00.232Z,4.32
2023-05-19T11:50:01.844Z,6.60
2023-05-19T11:53:04.106Z,8.18
2023-05-19T11:56:06.271Z,3.50
2023-05-19T11:59:08.480Z,13.57
2023-05-19T12:02:13.992Z,9.30
2023-05-19T12:05:23.070Z,7.68
2023-05-19T12:08:25.098Z,4.80
2023-05-19T12:11:28.624Z,4.25
2023-05-19T12:14:31.343Z,3.78
2023-05-19T12:17:32.937Z,4.45
2023-05-19T12:20:36.150Z,4.90
2023-05-19T12:23:38.588Z,4.47
2023-05-19T12:26:40.676Z,5.10
2023-05-19T12:29:42.270Z,4.28
2023-05-19T12:32:44.126Z,6.03
2023-05-19T12:35:46.294Z,5.28
2023-05-19T12:38:48.499Z,6.00
2023-05-19T12:41:50.008Z,3.35
2023-05-19T12:44:52.619Z,3.60
2023-05-19T12:47:54.571Z,6.78
2023-05-19T12:50:56.683Z,7.97
2023-05-19T12:53:58.291Z,3.45
2023-05-19T12:56:59.863Z,5.87
2023-05-19T13:00:02.287Z,6.57
2023-05-19T13:03:05.676Z,3.35
2023-05-19T13:06:07.620Z,3.12
2023-05-19T13:09:09.168Z,7.37
2023-05-19T13:12:10.729Z,3.30
2023-05-19T13:15:12.242Z,3.35
2023-05-19T13:18:14.268Z,4.28
2023-05-19T13:21:15.897Z,3.25
2023-05-19T13:24:17.416Z,7.70
2023-05-19T13:27:18.958Z,15.02
2023-05-19T13:30:21.264Z,7.40
2023-05-19T13:33:22.804Z,5.75
2023-05-19T13:36:25.463Z,4.15
2023-05-19T13:39:27.034Z,3.47
2023-05-19T13:42:28.590Z,5.35
2023-05-19T13:45:30.235Z,3.45
2023-05-19T13:48:31.850Z,3.60
2023-05-19T13:51:33.381Z,5.40
2023-05-19T13:54:35.036Z,4.30
2023-05-19T13:57:37.049Z,6.70
2023-05-19T14:00:38.672Z,4.65
2023-05-19T14:03:40.252Z,7.85
2023-05-19T14:06:42.085Z,5.65
2023-05-19T14:09:43.663Z,6.75
2023-05-19T14:13:12.211Z,3.87
2023-05-19T14:16:06.806Z,4.50
2023-05-19T14:19:08.602Z,8.35
2023-05-19T14:22:10.277Z,7.37
2023-05-19T14:25:11.861Z,8.00
2023-05-19T14:28:13.501Z,5.97
2023-05-19T14:31:15.265Z,3.65
2023-05-19T14:34:20.957Z,6.47
2023-05-19T14:37:22.635Z,5.15
2023-05-19T14:40:24.162Z,14.27
2023-05-19T14:43:25.802Z,6.82
2023-05-19T14:46:27.382Z,29.08
2023-05-19T14:49:28.933Z,23.48
2023-05-19T14:52:30.521Z,6.60
2023-05-19T14:55:32.263Z,7.03
2023-05-19T14:58:33.836Z,6.35
2023-05-19T15:01:35.413Z,4.72
2023-05-19T15:04:36.913Z,16.23
2023-05-19T15:07:38.472Z,13.25
2023-05-19T15:10:39.978Z,17.83
2023-05-19T15:13:41.519Z,12.77
2023-05-19T15:16:43.068Z,8.30
2023-05-19T15:19:44.713Z,5.72
2023-05-19T15:22:46.322Z,10.63
2023-05-19T15:25:47.902Z,10.25
2023-05-19T15:28:49.432Z,7.45
2023-05-19T15:31:51.813Z,7.18
2023-05-19T15:34:53.448Z,7.72
2023-05-19T15:37:54.950Z,10.63
2023-05-19T15:40:56.524Z,5.70
2023-05-19T15:44:00.427Z,9.77
2023-05-19T15:47:02.396Z,4.10
2023-05-19T15:50:04.077Z,8.57
2023-05-19T15:53:07.773Z,4.37
2023-05-19T15:56:09.372Z,6.07
2023-05-19T15:59:10.930Z,6.07
2023-05-19T16:02:12.493Z,7.80
2023-05-19T16:05:14.091Z,8.13
2023-05-19T16:08:15.663Z,5.85
2023-05-19T16:11:18.340Z,9.07
2023-05-19T16:14:19.904Z,3.78
2023-05-19T16:17:21.777Z,6.62
2023-05-19T16:20:28.238Z,7.45
2023-05-19T16:23:29.945Z,9.15
2023-05-19T16:26:31.543Z,11.12
2023-05-19T16:29:33.150Z,7.05
2023-05-19T16:32:34.767Z,8.40
2023-05-19T16:35:36.397Z,13.10
2023-05-19T16:38:38.007Z,15.32
2023-05-19T16:41:39.562Z,4.10
2023-05-19T16:44:42.593Z,11.10
2023-05-19T16:47:44.512Z,6.50
2023-05-19T16:50:47.786Z,6.68
2023-05-19T16:53:49.303Z,3.70
2023-05-19T16:56:51.349Z,5.85
2023-05-19T16:59:52.877Z,5.15
2023-05-19T17:02:54.515Z,5.75
2023-05-19T17:05:56.169Z,4.25
2023-05-19T17:08:57.689Z,7.57
2023-05-19T17:11:59.198Z,6.35
2023-05-19T17:15:00.787Z,8.25
2023-05-19T17:18:02.352Z,12.27
2023-05-19T17:21:05.396Z,9.27
2023-05-19T17:24:07.582Z,12.98
2023-05-19T17:27:09.296Z,6.37
2023-05-19T17:30:11.149Z,14.10
2023-05-19T17:33:13.061Z,10.20
2023-05-19T17:36:14.731Z,10.32
2023-05-19T17:39:16.562Z,19.48
2023-05-19T17:42:18.073Z,15.60
2023-05-19T17:45:19.692Z,33.95
2023-05-19T17:48:21.267Z,11.18
2023-05-19T17:51:22.901Z,14.38
2023-05-19T17:54:26.282Z,10.95
2023-05-19T17:57:30.874Z,8.50
2023-05-19T18:00:33.232Z,8.85
2023-05-19T18:03:35.215Z,7.55
2023-05-19T18:06:37.332Z,9.63
2023-05-19T18:09:40.986Z,12.15
2023-05-19T18:12:42.556Z,7.90
2023-05-19T18:15:44.158Z,13.57
2023-05-19T18:18:50.413Z,10.55
2023-05-19T18:21:52.245Z,17.40
2023-05-19T18:24:53.905Z,10.80
2023-05-19T18:27:58.513Z,15.05
2023-05-19T18:31:00.572Z,14.10
2023-05-19T18:34:02.760Z,9.70
2023-05-19T18:37:04.429Z,13.40
2023-05-19T18:40:06.936Z,9.35
2023-05-19T18:43:08.500Z,12.88
2023-05-19T18:46:10.398Z,13.23
2023-05-19T18:49:12.138Z,7.90
2023-05-19T18:52:13.695Z,13.02
2023-05-19T18:55:15.434Z,15.20
2023-05-19T18:58:17.982Z,11.20
2023-05-19T19:01:19.554Z,10.85
2023-05-19T19:04:21.989Z,19.83
2023-05-19T19:07:24.326Z,12.05
2023-05-19T19:10:26.005Z,11.40
2023-05-19T19:13:28.158Z,13.13
2023-05-19T19:16:29.742Z,15.85
2023-05-19T19:19:31.688Z,8.25
2023-05-19T19:22:33.483Z,11.18
2023-05-19T19:25:35.440Z,16.02
2023-05-19T19:28:37.145Z,12.18
2023-05-19T19:31:38.851Z,13.40
2023-05-19T19:34:40.440Z,18.17
2023-05-19T19:37:42.028Z,18.27
2023-05-19T19:40:43.700Z,19.42
2023-05-19T19:43:45.353Z,22.60
2023-05-19T19:46:46.965Z,23.58
2023-05-19T19:49:49.292Z,23.05
2023-05-19T19:52:50.964Z,24.55
2023-05-19T19:55:56.088Z,21.75
2023-05-19T19:58:59.102Z,21.40
2023-05-19T20:02:01.464Z,24.10
2023-05-19T20:05:03.791Z,20.98
2023-05-19T20:08:05.669Z,30.35
2023-05-19T20:11:07.401Z,30.02
2023-05-19T20:14:09.109Z,26.52
2023-05-19T20:17:10.670Z,21.10
2023-05-19T20:20:12.476Z,24.58
2023-05-19T20:23:16.283Z,20.40
2023-05-19T20:26:17.920Z,19.12
2023-05-19T20:29:19.633Z,17.58
2023-05-19T20:32:21.205Z,23.98
2023-05-19T20:35:22.944Z,14.80
2023-05-19T20:38:24.484Z,19.05
2023-05-19T20:41:26.023Z,19.80
2023-05-19T20:44:27.608Z,18.87
2023-05-19T20:47:30.569Z,17.70
2023-05-19T20:50:32.468Z,17.92
2023-05-19T20:53:34.157Z,16.52
2023-05-19T20:56:35.863Z,12.77
2023-05-19T20:59:37.400Z,12.75
2023-05-19T21:02:39.010Z,13.45
2023-05-19T21:05:40.542Z,14.02
2023-05-19T21:08:42.161Z,12.57
2023-05-19T21:11:43.775Z,11.52
2023-05-19T21:14:45.315Z,10.50
2023-05-19T21:17:47.266Z,8.52
2023-05-19T21:20:48.879Z,9.88
2023-05-19T21:23:50.487Z,11.63
2023-05-19T21:26:52.154Z,11.98
2023-05-19T21:29:54.276Z,13.77
2023-05-19T21:32:55.931Z,16.85
2023-05-19T21:35:59.192Z,10.25
2023-05-19T21:39:00.869Z,12.75
2023-05-19T21:42:02.671Z,14.13
2023-05-19T21:45:04.416Z,15.30
2023-05-19T21:48:06.195Z,12.65
2023-05-19T21:51:07.820Z,14.18
2023-05-19T21:54:09.346Z,14.55
2023-05-19T21:57:12.627Z,13.70
2023-05-19T22:00:14.951Z,15.75
2023-05-19T22:03:16.789Z,13.57
2023-05-19T22:06:18.349Z,15.75
2023-05-19T22:09:19.902Z,13.68
2023-05-19T22:12:21.571Z,17.67
2023-05-19T22:15:23.183Z,21.20
2023-05-19T22:18:24.807Z,13.05
2023-05-19T22:21:26.316Z,14.73
2023-05-19T22:24:27.916Z,12.90
2023-05-19T22:27:29.564Z,19.80
2023-05-19T22:30:31.139Z,12.05
2023-05-19T22:33:33.314Z,14.30
2023-05-19T22:36:34.919Z,16.73
2023-05-19T22:39:37.054Z,16.77
2023-05-19T22:42:38.617Z,16.92
2023-05-19T22:45:40.477Z,18.80
2023-05-19T22:48:42.034Z,16.25
2023-05-19T22:51:43.614Z,16.52
2023-05-19T22:54:45.117Z,17.75
2023-05-19T22:57:46.698Z,15.55
2023-05-19T23:00:48.297Z,16.52
2023-05-19T23:03:49.929Z,15.43
2023-05-19T23:06:51.607Z,15.50
2023-05-19T23:09:53.161Z,20.40
2023-05-19T23:12:54.935Z,22.98
2023-05-19T23:15:56.523Z,22.48
2023-05-19T23:18:58.185Z,13.88
2023-05-19T23:21:59.771Z,13.98
2023-05-19T23:25:05.698Z,15.63
2023-05-19T23:28:10.231Z,11.82
2023-05-19T23:31:11.853Z,13.43
2023-05-19T23:34:13.431Z,14.38
2023-05-19T23:37:15.167Z,9.50
2023-05-19T23:40:16.846Z,14.27
2023-05-19T23:43:18.388Z,20.52
2023-05-19T23:46:19.989Z,14.63
2023-05-19T23:49:21.619Z,15.57
2023-05-19T23:52:23.167Z,12.90
2023-05-19T23:55:24.802Z,15.95
2023-05-19T23:58:26.391Z,14.52
